sensor_id;sensor_type;location;lat;lon;timestamp;P1;durP1;ratioP1;P2;durP2;ratioP2
66559;SDS011;53413;49.878;8.142;2023-04-25T00:00:02;10.45;;;4.30;;
66559;SDS011;53413;49.878;8.142;2023-04-25T00:02:31;10.13;;;4.63;;
66559;SDS011;53413;49.878;8.142;2023-04-25T00:04:59;10.15;;;4.40;;
66559;SDS011;53413;49.878;8.142;2023-04-25T00:07:26;10.88;;;4.60;;
66559;SDS011;53413;49.878;8.142;2023-04-25T00:09:52;10.00;;;4.50;;
66559;SDS011;53413;49.878;8.142;2023-04-25T00:12:17;9.40;;;4.30;;
66559;SDS011;53413;49.878;8.142;2023-04-25T00:14:43;10.63;;;4.27;;
66559;SDS011;53413;49.878;8.142;2023-04-25T00:17:10;8.50;;;4.07;;
66559;SDS011;53413;49.878;8.142;2023-04-25T00:19:36;9.83;;;4.07;;
66559;SDS011;53413;49.878;8.142;2023-04-25T00:22:02;10.35;;;4.40;;
66559;SDS011;53413;49.878;8.142;2023-04-25T00:24:28;10.00;;;4.57;;
66559;SDS011;53413;49.878;8.142;2023-04-25T00:26:54;10.83;;;4.47;;
66559;SDS011;53413;49.878;8.142;2023-04-25T00:29:19;9.43;;;4.20;;
66559;SDS011;53413;49.878;8.142;2023-04-25T00:31:45;8.93;;;4.00;;
66559;SDS011;53413;49.878;8.142;2023-04-25T00:34:10;8.88;;;4.28;;
66559;SDS011;53413;49.878;8.142;2023-04-25T00:36:35;9.13;;;4.10;;
66559;SDS011;53413;49.878;8.142;2023-04-25T00:39:01;9.50;;;4.40;;
66559;SDS011;53413;49.878;8.142;2023-04-25T00:41:27;8.70;;;4.30;;
66559;SDS011;53413;49.878;8.142;2023-04-25T00:43:53;9.83;;;4.30;;
66559;SDS011;53413;49.878;8.142;2023-04-25T00:46:19;11.20;;;4.38;;
66559;SDS011;53413;49.878;8.142;2023-04-25T00:48:45;11.80;;;4.63;;
66559;SDS011;53413;49.878;8.142;2023-04-25T00:51:12;11.70;;;4.87;;
66559;SDS011;53413;49.878;8.142;2023-04-25T00:53:40;9.98;;;4.68;;
66559;SDS011;53413;49.878;8.142;2023-04-25T00:56:06;10.38;;;4.72;;
66559;SDS011;53413;49.878;8.142;2023-04-25T00:58:31;9.88;;;4.60;;
66559;SDS011;53413;49.878;8.142;2023-04-25T01:00:57;8.90;;;4.53;;
66559;SDS011;53413;49.878;8.142;2023-04-25T01:03:22;10.37;;;4.60;;
66559;SDS011;53413;49.878;8.142;2023-04-25T01:05:49;9.93;;;4.30;;
66559;SDS011;53413;49.878;8.142;2023-04-25T01:08:15;10.60;;;4.72;;
66559;SDS011;53413;49.878;8.142;2023-04-25T01:10:41;10.53;;;4.50;;
66559;SDS011;53413;49.878;8.142;2023-04-25T01:13:06;10.30;;;4.60;;
66559;SDS011;53413;49.878;8.142;2023-04-25T01:15:32;10.82;;;4.43;;
66559;SDS011;53413;49.878;8.142;2023-04-25T01:17:58;10.20;;;4.40;;
66559;SDS011;53413;49.878;8.142;2023-04-25T01:20:25;9.93;;;4.60;;
66559;SDS011;53413;49.878;8.142;2023-04-25T01:22:54;10.02;;;4.57;;
66559;SDS011;53413;49.878;8.142;2023-04-25T01:25:22;10.05;;;4.63;;
66559;SDS011;53413;49.878;8.142;2023-04-25T01:27:47;9.63;;;4.15;;
66559;SDS011;53413;49.878;8.142;2023-04-25T01:30:13;11.87;;;4.93;;
66559;SDS011;53413;49.878;8.142;2023-04-25T01:32:39;9.80;;;4.28;;
66559;SDS011;53413;49.878;8.142;2023-04-25T01:35:06;10.30;;;4.97;;
66559;SDS011;53413;49.878;8.142;2023-04-25T01:37:44;10.25;;;4.80;;
66559;SDS011;53413;49.878;8.142;2023-04-25T01:40:10;11.32;;;4.90;;
66559;SDS011;53413;49.878;8.142;2023-04-25T01:42:38;12.20;;;4.90;;
66559;SDS011;53413;49.878;8.142;2023-04-25T01:45:06;10.23;;;4.70;;
66559;SDS011;53413;49.878;8.142;2023-04-25T01:47:33;10.43;;;4.80;;
66559;SDS011;53413;49.878;8.142;2023-04-25T01:50:00;10.73;;;4.90;;
66559;SDS011;53413;49.878;8.142;2023-04-25T01:52:26;10.82;;;4.75;;
66559;SDS011;53413;49.878;8.142;2023-04-25T01:54:51;10.50;;;4.50;;
66559;SDS011;53413;49.878;8.142;2023-04-25T01:57:18;10.23;;;4.63;;
66559;SDS011;53413;49.878;8.142;2023-04-25T01:59:43;10.93;;;5.03;;
66559;SDS011;53413;49.878;8.142;2023-04-25T02:02:09;10.93;;;4.88;;
66559;SDS011;53413;49.878;8.142;2023-04-25T02:04:35;11.37;;;4.63;;
66559;SDS011;53413;49.878;8.142;2023-04-25T02:07:00;11.63;;;4.67;;
66559;SDS011;53413;49.878;8.142;2023-04-25T02:09:25;11.20;;;4.60;;
66559;SDS011;53413;49.878;8.142;2023-04-25T02:11:51;10.23;;;4.63;;
66559;SDS011;53413;49.878;8.142;2023-04-25T02:14:16;11.43;;;4.90;;
66559;SDS011;53413;49.878;8.142;2023-04-25T02:16:41;11.27;;;5.20;;
66559;SDS011;53413;49.878;8.142;2023-04-25T02:19:08;11.93;;;5.18;;
66559;SDS011;53413;49.878;8.142;2023-04-25T02:21:34;10.57;;;5.20;;
66559;SDS011;53413;49.878;8.142;2023-04-25T02:24:00;10.48;;;4.63;;
66559;SDS011;53413;49.878;8.142;2023-04-25T02:26:26;12.43;;;4.85;;
66559;SDS011;53413;49.878;8.142;2023-04-25T02:28:51;10.37;;;4.63;;
66559;SDS011;53413;49.878;8.142;2023-04-25T02:31:17;11.30;;;5.00;;
66559;SDS011;53413;49.878;8.142;2023-04-25T02:33:42;12.13;;;5.30;;
66559;SDS011;53413;49.878;8.142;2023-04-25T02:36:08;12.00;;;5.15;;
66559;SDS011;53413;49.878;8.142;2023-04-25T02:38:33;11.87;;;5.20;;
66559;SDS011;53413;49.878;8.142;2023-04-25T02:40:59;12.27;;;5.45;;
66559;SDS011;53413;49.878;8.142;2023-04-25T02:43:25;13.37;;;5.67;;
66559;SDS011;53413;49.878;8.142;2023-04-25T02:45:50;12.95;;;5.20;;
66559;SDS011;53413;49.878;8.142;2023-04-25T02:48:16;11.85;;;5.30;;
66559;SDS011;53413;49.878;8.142;2023-04-25T02:50:41;13.13;;;5.50;;
66559;SDS011;53413;49.878;8.142;2023-04-25T02:53:07;11.97;;;5.27;;
66559;SDS011;53413;49.878;8.142;2023-04-25T02:55:32;11.80;;;5.47;;
66559;SDS011;53413;49.878;8.142;2023-04-25T02:57:57;11.05;;;5.18;;
66559;SDS011;53413;49.878;8.142;2023-04-25T03:00:23;13.23;;;5.13;;
66559;SDS011;53413;49.878;8.142;2023-04-25T03:02:49;13.20;;;5.23;;
66559;SDS011;53413;49.878;8.142;2023-04-25T03:05:14;11.90;;;5.47;;
66559;SDS011;53413;49.878;8.142;2023-04-25T03:07:40;12.37;;;5.20;;
66559;SDS011;53413;49.878;8.142;2023-04-25T03:10:08;13.43;;;5.80;;
66559;SDS011;53413;49.878;8.142;2023-04-25T03:12:33;12.52;;;5.60;;
66559;SDS011;53413;49.878;8.142;2023-04-25T03:14:59;14.17;;;5.90;;
66559;SDS011;53413;49.878;8.142;2023-04-25T03:17:24;12.67;;;5.40;;
66559;SDS011;53413;49.878;8.142;2023-04-25T03:19:49;13.07;;;5.77;;
66559;SDS011;53413;49.878;8.142;2023-04-25T03:22:15;12.90;;;5.43;;
66559;SDS011;53413;49.878;8.142;2023-04-25T03:24:40;13.47;;;5.80;;
66559;SDS011;53413;49.878;8.142;2023-04-25T03:27:05;13.80;;;5.70;;
66559;SDS011;53413;49.878;8.142;2023-04-25T03:29:31;12.88;;;5.60;;
66559;SDS011;53413;49.878;8.142;2023-04-25T03:31:56;13.87;;;5.87;;
66559;SDS011;53413;49.878;8.142;2023-04-25T03:34:21;12.97;;;5.57;;
66559;SDS011;53413;49.878;8.142;2023-04-25T03:36:47;13.77;;;6.37;;
66559;SDS011;53413;49.878;8.142;2023-04-25T03:39:12;12.97;;;5.53;;
66559;SDS011;53413;49.878;8.142;2023-04-25T03:41:38;13.13;;;5.47;;
66559;SDS011;53413;49.878;8.142;2023-04-25T03:44:03;11.20;;;4.97;;
66559;SDS011;53413;49.878;8.142;2023-04-25T03:46:28;11.60;;;5.27;;
66559;SDS011;53413;49.878;8.142;2023-04-25T03:48:54;12.60;;;5.20;;
66559;SDS011;53413;49.878;8.142;2023-04-25T03:51:19;13.33;;;5.80;;
66559;SDS011;53413;49.878;8.142;2023-04-25T03:53:45;13.20;;;5.60;;
66559;SDS011;53413;49.878;8.142;2023-04-25T03:56:10;13.07;;;5.70;;
66559;SDS011;53413;49.878;8.142;2023-04-25T03:58:35;12.77;;;5.37;;
66559;SDS011;53413;49.878;8.142;2023-04-25T04:01:01;11.87;;;5.00;;
66559;SDS011;53413;49.878;8.142;2023-04-25T04:03:32;11.95;;;5.20;;
66559;SDS011;53413;49.878;8.142;2023-04-25T04:05:58;13.03;;;5.50;;
66559;SDS011;53413;49.878;8.142;2023-04-25T04:08:24;13.65;;;5.53;;
66559;SDS011;53413;49.878;8.142;2023-04-25T04:10:49;13.13;;;5.43;;
66559;SDS011;53413;49.878;8.142;2023-04-25T04:13:15;13.00;;;5.53;;
66559;SDS011;53413;49.878;8.142;2023-04-25T04:15:40;12.50;;;5.10;;
66559;SDS011;53413;49.878;8.142;2023-04-25T04:18:05;13.17;;;5.37;;
66559;SDS011;53413;49.878;8.142;2023-04-25T04:20:31;12.13;;;5.43;;
66559;SDS011;53413;49.878;8.142;2023-04-25T04:22:56;13.23;;;5.43;;
66559;SDS011;53413;49.878;8.142;2023-04-25T04:25:22;13.67;;;5.60;;
66559;SDS011;53413;49.878;8.142;2023-04-25T04:27:47;12.45;;;5.80;;
66559;SDS011;53413;49.878;8.142;2023-04-25T04:30:12;13.83;;;5.80;;
66559;SDS011;53413;49.878;8.142;2023-04-25T04:32:38;14.70;;;5.90;;
66559;SDS011;53413;49.878;8.142;2023-04-25T04:35:04;12.93;;;5.40;;
66559;SDS011;53413;49.878;8.142;2023-04-25T04:37:31;14.02;;;5.75;;
66559;SDS011;53413;49.878;8.142;2023-04-25T04:39:57;15.52;;;6.22;;
66559;SDS011;53413;49.878;8.142;2023-04-25T04:42:22;16.93;;;7.30;;
66559;SDS011;53413;49.878;8.142;2023-04-25T04:44:49;17.98;;;6.97;;
66559;SDS011;53413;49.878;8.142;2023-04-25T04:47:15;18.13;;;7.07;;
66559;SDS011;53413;49.878;8.142;2023-04-25T04:49:40;17.03;;;6.97;;
66559;SDS011;53413;49.878;8.142;2023-04-25T04:52:05;18.77;;;7.35;;
66559;SDS011;53413;49.878;8.142;2023-04-25T04:54:31;18.23;;;7.10;;
66559;SDS011;53413;49.878;8.142;2023-04-25T04:56:56;20.60;;;7.17;;
66559;SDS011;53413;49.878;8.142;2023-04-25T04:59:21;19.83;;;7.40;;
66559;SDS011;53413;49.878;8.142;2023-04-25T05:01:47;20.17;;;7.63;;
66559;SDS011;53413;49.878;8.142;2023-04-25T05:04:12;19.33;;;7.70;;
66559;SDS011;53413;49.878;8.142;2023-04-25T05:06:37;21.77;;;8.10;;
66559;SDS011;53413;49.878;8.142;2023-04-25T05:09:03;21.13;;;8.05;;
66559;SDS011;53413;49.878;8.142;2023-04-25T05:11:29;21.15;;;7.50;;
66559;SDS011;53413;49.878;8.142;2023-04-25T05:13:54;19.70;;;7.05;;
66559;SDS011;53413;49.878;8.142;2023-04-25T05:16:20;16.53;;;6.60;;
66559;SDS011;53413;49.878;8.142;2023-04-25T05:18:45;18.90;;;6.37;;
66559;SDS011;53413;49.878;8.142;2023-04-25T05:21:11;14.23;;;5.75;;
66559;SDS011;53413;49.878;8.142;2023-04-25T05:23:36;13.93;;;5.80;;
66559;SDS011;53413;49.878;8.142;2023-04-25T05:26:02;14.93;;;5.63;;
66559;SDS011;53413;49.878;8.142;2023-04-25T05:28:27;13.53;;;4.80;;
66559;SDS011;53413;49.878;8.142;2023-04-25T05:30:53;11.98;;;4.30;;
66559;SDS011;53413;49.878;8.142;2023-04-25T05:33:18;11.10;;;4.20;;
66559;SDS011;53413;49.878;8.142;2023-04-25T05:35:44;12.37;;;4.20;;
66559;SDS011;53413;49.878;8.142;2023-04-25T05:38:09;11.55;;;4.13;;
66559;SDS011;53413;49.878;8.142;2023-04-25T05:40:35;13.90;;;4.57;;
66559;SDS011;53413;49.878;8.142;2023-04-25T05:43:00;14.77;;;4.83;;
66559;SDS011;53413;49.878;8.142;2023-04-25T05:45:26;15.13;;;5.00;;
66559;SDS011;53413;49.878;8.142;2023-04-25T05:47:51;12.98;;;4.20;;
66559;SDS011;53413;49.878;8.142;2023-04-25T05:50:16;14.90;;;4.68;;
66559;SDS011;53413;49.878;8.142;2023-04-25T05:52:42;15.53;;;4.60;;
66559;SDS011;53413;49.878;8.142;2023-04-25T05:55:13;14.53;;;4.70;;
66559;SDS011;53413;49.878;8.142;2023-04-25T05:57:38;13.75;;;5.32;;
66559;SDS011;53413;49.878;8.142;2023-04-25T06:00:06;13.65;;;4.63;;
66559;SDS011;53413;49.878;8.142;2023-04-25T06:02:34;13.35;;;4.72;;
66559;SDS011;53413;49.878;8.142;2023-04-25T06:05:02;14.73;;;4.80;;
66559;SDS011;53413;49.878;8.142;2023-04-25T06:07:28;12.48;;;4.55;;
66559;SDS011;53413;49.878;8.142;2023-04-25T06:09:54;14.38;;;4.50;;
66559;SDS011;53413;49.878;8.142;2023-04-25T06:12:20;12.53;;;4.30;;
66559;SDS011;53413;49.878;8.142;2023-04-25T06:14:45;14.13;;;4.33;;
66559;SDS011;53413;49.878;8.142;2023-04-25T06:17:11;12.15;;;4.60;;
66559;SDS011;53413;49.878;8.142;2023-04-25T06:19:36;14.13;;;4.83;;
66559;SDS011;53413;49.878;8.142;2023-04-25T06:22:02;14.17;;;5.20;;
66559;SDS011;53413;49.878;8.142;2023-04-25T06:24:27;17.37;;;5.00;;
66559;SDS011;53413;49.878;8.142;2023-04-25T06:26:53;14.70;;;5.13;;
66559;SDS011;53413;49.878;8.142;2023-04-25T06:29:22;17.33;;;4.50;;
66559;SDS011;53413;49.878;8.142;2023-04-25T06:31:53;10.55;;;4.50;;
66559;SDS011;53413;49.878;8.142;2023-04-25T06:34:18;12.40;;;4.40;;
66559;SDS011;53413;49.878;8.142;2023-04-25T06:36:44;12.10;;;4.40;;
66559;SDS011;53413;49.878;8.142;2023-04-25T06:39:19;11.93;;;4.13;;
66559;SDS011;53413;49.878;8.142;2023-04-25T06:41:50;13.07;;;4.22;;
66559;SDS011;53413;49.878;8.142;2023-04-25T06:44:16;11.57;;;4.10;;
66559;SDS011;53413;49.878;8.142;2023-04-25T06:46:42;13.63;;;4.10;;
66559;SDS011;53413;49.878;8.142;2023-04-25T06:49:22;12.65;;;4.20;;
66559;SDS011;53413;49.878;8.142;2023-04-25T06:52:02;13.18;;;4.10;;
66559;SDS011;53413;49.878;8.142;2023-04-25T06:54:30;11.57;;;4.10;;
66559;SDS011;53413;49.878;8.142;2023-04-25T06:56:55;12.43;;;4.18;;
66559;SDS011;53413;49.878;8.142;2023-04-25T06:59:21;10.33;;;3.80;;
66559;SDS011;53413;49.878;8.142;2023-04-25T07:01:47;12.48;;;4.28;;
66559;SDS011;53413;49.878;8.142;2023-04-25T07:04:12;12.47;;;4.00;;
66559;SDS011;53413;49.878;8.142;2023-04-25T07:06:37;9.70;;;3.53;;
66559;SDS011;53413;49.878;8.142;2023-04-25T07:09:07;9.45;;;3.60;;
66559;SDS011;53413;49.878;8.142;2023-04-25T07:11:36;9.30;;;3.58;;
66559;SDS011;53413;49.878;8.142;2023-04-25T07:14:02;10.45;;;4.28;;
66559;SDS011;53413;49.878;8.142;2023-04-25T07:16:27;11.87;;;4.27;;
66559;SDS011;53413;49.878;8.142;2023-04-25T07:18:53;10.60;;;4.28;;
66559;SDS011;53413;49.878;8.142;2023-04-25T07:21:18;11.17;;;4.00;;
66559;SDS011;53413;49.878;8.142;2023-04-25T07:23:44;11.93;;;4.10;;
66559;SDS011;53413;49.878;8.142;2023-04-25T07:26:09;11.10;;;4.20;;
66559;SDS011;53413;49.878;8.142;2023-04-25T07:28:34;12.03;;;4.40;;
66559;SDS011;53413;49.878;8.142;2023-04-25T07:31:00;11.82;;;4.40;;
66559;SDS011;53413;49.878;8.142;2023-04-25T07:33:25;11.37;;;4.10;;
66559;SDS011;53413;49.878;8.142;2023-04-25T07:35:51;10.40;;;4.37;;
66559;SDS011;53413;49.878;8.142;2023-04-25T07:38:17;11.18;;;4.20;;
66559;SDS011;53413;49.878;8.142;2023-04-25T07:40:42;8.80;;;3.50;;
66559;SDS011;53413;49.878;8.142;2023-04-25T07:43:08;10.30;;;3.80;;
66559;SDS011;53413;49.878;8.142;2023-04-25T07:45:33;9.47;;;3.83;;
66559;SDS011;53413;49.878;8.142;2023-04-25T07:47:58;11.53;;;4.27;;
66559;SDS011;53413;49.878;8.142;2023-04-25T07:50:24;12.48;;;3.90;;
66559;SDS011;53413;49.878;8.142;2023-04-25T07:52:49;9.37;;;3.80;;
66559;SDS011;53413;49.878;8.142;2023-04-25T07:55:15;10.30;;;4.00;;
66559;SDS011;53413;49.878;8.142;2023-04-25T07:57:41;7.75;;;3.55;;
66559;SDS011;53413;49.878;8.142;2023-04-25T08:00:06;9.23;;;3.60;;
66559;SDS011;53413;49.878;8.142;2023-04-25T08:02:34;8.68;;;3.75;;
66559;SDS011;53413;49.878;8.142;2023-04-25T08:05:00;8.63;;;3.50;;
66559;SDS011;53413;49.878;8.142;2023-04-25T08:07:25;7.37;;;3.37;;
66559;SDS011;53413;49.878;8.142;2023-04-25T08:09:51;6.80;;;3.10;;
66559;SDS011;53413;49.878;8.142;2023-04-25T08:12:17;6.47;;;2.77;;
66559;SDS011;53413;49.878;8.142;2023-04-25T08:14:42;6.63;;;2.95;;
66559;SDS011;53413;49.878;8.142;2023-04-25T08:17:09;9.18;;;3.00;;
66559;SDS011;53413;49.878;8.142;2023-04-25T08:19:34;5.80;;;2.58;;
66559;SDS011;53413;49.878;8.142;2023-04-25T08:22:00;4.67;;;2.33;;
66559;SDS011;53413;49.878;8.142;2023-04-25T08:24:25;6.50;;;2.70;;
66559;SDS011;53413;49.878;8.142;2023-04-25T08:26:51;5.77;;;2.93;;
66559;SDS011;53413;49.878;8.142;2023-04-25T08:29:16;6.28;;;2.83;;
66559;SDS011;53413;49.878;8.142;2023-04-25T08:31:42;5.70;;;2.60;;
66559;SDS011;53413;49.878;8.142;2023-04-25T08:34:07;5.63;;;2.40;;
66559;SDS011;53413;49.878;8.142;2023-04-25T08:36:33;5.60;;;2.40;;
66559;SDS011;53413;49.878;8.142;2023-04-25T08:38:58;5.75;;;2.50;;
66559;SDS011;53413;49.878;8.142;2023-04-25T08:41:24;5.60;;;3.03;;
66559;SDS011;53413;49.878;8.142;2023-04-25T08:43:51;5.45;;;2.70;;
66559;SDS011;53413;49.878;8.142;2023-04-25T08:46:18;6.68;;;2.70;;
66559;SDS011;53413;49.878;8.142;2023-04-25T08:48:44;5.83;;;2.80;;
66559;SDS011;53413;49.878;8.142;2023-04-25T08:51:12;7.57;;;2.78;;
66559;SDS011;53413;49.878;8.142;2023-04-25T08:53:43;6.30;;;2.40;;
66559;SDS011;53413;49.878;8.142;2023-04-25T08:56:14;4.70;;;2.55;;
66559;SDS011;53413;49.878;8.142;2023-04-25T08:58:42;5.87;;;2.30;;
66559;SDS011;53413;49.878;8.142;2023-04-25T09:01:09;5.30;;;2.25;;
66559;SDS011;53413;49.878;8.142;2023-04-25T09:03:35;5.97;;;2.87;;
66559;SDS011;53413;49.878;8.142;2023-04-25T09:06:03;5.88;;;2.60;;
66559;SDS011;53413;49.878;8.142;2023-04-25T09:08:28;6.30;;;2.70;;
66559;SDS011;53413;49.878;8.142;2023-04-25T09:10:55;5.65;;;2.60;;
66559;SDS011;53413;49.878;8.142;2023-04-25T09:13:24;6.33;;;2.87;;
66559;SDS011;53413;49.878;8.142;2023-04-25T09:15:55;5.90;;;3.00;;
66559;SDS011;53413;49.878;8.142;2023-04-25T09:18:28;5.28;;;2.70;;
66559;SDS011;53413;49.878;8.142;2023-04-25T09:20:56;6.43;;;3.10;;
66559;SDS011;53413;49.878;8.142;2023-04-25T09:23:23;6.72;;;3.00;;
66559;SDS011;53413;49.878;8.142;2023-04-25T09:25:50;7.00;;;3.33;;
66559;SDS011;53413;49.878;8.142;2023-04-25T09:28:22;6.00;;;3.10;;
66559;SDS011;53413;49.878;8.142;2023-04-25T09:30:53;5.68;;;2.95;;
66559;SDS011;53413;49.878;8.142;2023-04-25T09:33:20;5.95;;;2.97;;
66559;SDS011;53413;49.878;8.142;2023-04-25T09:35:45;6.63;;;3.20;;
66559;SDS011;53413;49.878;8.142;2023-04-25T09:38:11;6.60;;;3.30;;
66559;SDS011;53413;49.878;8.142;2023-04-25T09:40:41;6.30;;;3.28;;
66559;SDS011;53413;49.878;8.142;2023-04-25T09:43:23;6.93;;;3.08;;
66559;SDS011;53413;49.878;8.142;2023-04-25T09:45:50;6.38;;;3.55;;
66559;SDS011;53413;49.878;8.142;2023-04-25T09:48:18;7.35;;;3.40;;
66559;SDS011;53413;49.878;8.142;2023-04-25T09:50:45;7.80;;;3.37;;
66559;SDS011;53413;49.878;8.142;2023-04-25T09:53:32;7.82;;;3.50;;
66559;SDS011;53413;49.878;8.142;2023-04-25T09:56:05;8.05;;;3.47;;
66559;SDS011;53413;49.878;8.142;2023-04-25T09:58:32;7.38;;;3.40;;
66559;SDS011;53413;49.878;8.142;2023-04-25T10:01:01;7.07;;;3.53;;
66559;SDS011;53413;49.878;8.142;2023-04-25T10:03:29;5.93;;;3.27;;
66559;SDS011;53413;49.878;8.142;2023-04-25T10:05:56;6.90;;;3.83;;
66559;SDS011;53413;49.878;8.142;2023-04-25T10:08:24;7.68;;;4.15;;
66559;SDS011;53413;49.878;8.142;2023-04-25T10:10:51;7.20;;;3.40;;
66559;SDS011;53413;49.878;8.142;2023-04-25T10:13:17;6.47;;;3.40;;
66559;SDS011;53413;49.878;8.142;2023-04-25T10:15:43;6.78;;;3.60;;
66559;SDS011;53413;49.878;8.142;2023-04-25T10:18:09;6.88;;;3.45;;
66559;SDS011;53413;49.878;8.142;2023-04-25T10:20:35;8.13;;;3.60;;
66559;SDS011;53413;49.878;8.142;2023-04-25T10:23:11;8.32;;;3.90;;
66559;SDS011;53413;49.878;8.142;2023-04-25T10:25:40;9.73;;;3.90;;
66559;SDS011;53413;49.878;8.142;2023-04-25T10:28:06;7.43;;;4.15;;
66559;SDS011;53413;49.878;8.142;2023-04-25T10:30:31;8.07;;;4.00;;
66559;SDS011;53413;49.878;8.142;2023-04-25T10:32:58;9.57;;;4.23;;
66559;SDS011;53413;49.878;8.142;2023-04-25T10:40:23;8.50;;;3.80;;
66559;SDS011;53413;49.878;8.142;2023-04-25T10:42:48;7.15;;;4.00;;
66559;SDS011;53413;49.878;8.142;2023-04-25T10:45:14;8.23;;;4.00;;
66559;SDS011;53413;49.878;8.142;2023-04-25T10:47:45;7.57;;;3.80;;
66559;SDS011;53413;49.878;8.142;2023-04-25T10:50:11;8.00;;;4.13;;
66559;SDS011;53413;49.878;8.142;2023-04-25T10:52:39;7.78;;;4.18;;
66559;SDS011;53413;49.878;8.142;2023-04-25T10:55:05;7.40;;;4.00;;
66559;SDS011;53413;49.878;8.142;2023-04-25T10:57:39;8.38;;;4.18;;
66559;SDS011;53413;49.878;8.142;2023-04-25T11:02:40;8.93;;;3.97;;
66559;SDS011;53413;49.878;8.142;2023-04-25T11:05:08;8.87;;;4.10;;
66559;SDS011;53413;49.878;8.142;2023-04-25T11:07:38;8.10;;;4.07;;
66559;SDS011;53413;49.878;8.142;2023-04-25T11:10:10;7.90;;;4.10;;
66559;SDS011;53413;49.878;8.142;2023-04-25T11:12:35;6.90;;;4.13;;
66559;SDS011;53413;49.878;8.142;2023-04-25T11:15:02;8.80;;;4.00;;
66559;SDS011;53413;49.878;8.142;2023-04-25T11:17:28;7.57;;;3.90;;
66559;SDS011;53413;49.878;8.142;2023-04-25T11:19:54;9.00;;;3.92;;
66559;SDS011;53413;49.878;8.142;2023-04-25T11:22:21;9.30;;;4.10;;
66559;SDS011;53413;49.878;8.142;2023-04-25T11:24:47;7.88;;;3.55;;
66559;SDS011;53413;49.878;8.142;2023-04-25T11:27:12;9.73;;;3.60;;
66559;SDS011;53413;49.878;8.142;2023-04-25T11:29:38;8.47;;;3.80;;
66559;SDS011;53413;49.878;8.142;2023-04-25T11:32:03;9.87;;;4.07;;
66559;SDS011;53413;49.878;8.142;2023-04-25T11:34:29;9.88;;;4.20;;
66559;SDS011;53413;49.878;8.142;2023-04-25T11:37:05;9.75;;;4.00;;
66559;SDS011;53413;49.878;8.142;2023-04-25T11:39:31;10.30;;;3.90;;
66559;SDS011;53413;49.878;8.142;2023-04-25T11:41:56;8.35;;;3.50;;
66559;SDS011;53413;49.878;8.142;2023-04-25T11:44:22;8.80;;;3.43;;
66559;SDS011;53413;49.878;8.142;2023-04-25T11:46:47;8.13;;;4.17;;
66559;SDS011;53413;49.878;8.142;2023-04-25T11:49:13;8.25;;;4.03;;
66559;SDS011;53413;49.878;8.142;2023-04-25T11:51:43;11.20;;;4.30;;
66559;SDS011;53413;49.878;8.142;2023-04-25T11:54:11;9.95;;;4.40;;
66559;SDS011;53413;49.878;8.142;2023-04-25T11:56:43;9.52;;;4.15;;
66559;SDS011;53413;49.878;8.142;2023-04-25T11:59:09;9.38;;;3.80;;
66559;SDS011;53413;49.878;8.142;2023-04-25T12:01:35;7.67;;;3.70;;
66559;SDS011;53413;49.878;8.142;2023-04-25T12:04:16;9.70;;;4.10;;
66559;SDS011;53413;49.878;8.142;2023-04-25T12:06:43;10.88;;;3.95;;
66559;SDS011;53413;49.878;8.142;2023-04-25T12:09:12;9.47;;;4.07;;
66559;SDS011;53413;49.878;8.142;2023-04-25T12:11:53;9.80;;;3.90;;
66559;SDS011;53413;49.878;8.142;2023-04-25T12:14:20;10.73;;;4.20;;
66559;SDS011;53413;49.878;8.142;2023-04-25T12:16:48;11.27;;;4.60;;
66559;SDS011;53413;49.878;8.142;2023-04-25T12:19:15;10.80;;;4.07;;
66559;SDS011;53413;49.878;8.142;2023-04-25T12:21:41;8.67;;;3.77;;
66559;SDS011;53413;49.878;8.142;2023-04-25T12:24:14;9.90;;;3.70;;
66559;SDS011;53413;49.878;8.142;2023-04-25T12:26:53;8.55;;;3.72;;
66559;SDS011;53413;49.878;8.142;2023-04-25T12:29:25;8.87;;;4.10;;
66559;SDS011;53413;49.878;8.142;2023-04-25T12:31:52;8.18;;;4.03;;
66559;SDS011;53413;49.878;8.142;2023-04-25T12:34:19;7.57;;;3.85;;
66559;SDS011;53413;49.878;8.142;2023-04-25T12:36:46;8.95;;;4.30;;
66559;SDS011;53413;49.878;8.142;2023-04-25T12:39:18;7.30;;;3.72;;
66559;SDS011;53413;49.878;8.142;2023-04-25T12:41:45;11.07;;;3.90;;
66559;SDS011;53413;49.878;8.142;2023-04-25T12:44:11;9.88;;;3.95;;
66559;SDS011;53413;49.878;8.142;2023-04-25T12:46:37;10.02;;;3.70;;
66559;SDS011;53413;49.878;8.142;2023-04-25T12:49:03;8.47;;;3.50;;
66559;SDS011;53413;49.878;8.142;2023-04-25T12:51:28;9.32;;;3.70;;
66559;SDS011;53413;49.878;8.142;2023-04-25T12:53:54;9.52;;;3.60;;
66559;SDS011;53413;49.878;8.142;2023-04-25T12:56:20;8.10;;;4.05;;
66559;SDS011;53413;49.878;8.142;2023-04-25T12:58:45;8.43;;;3.70;;
66559;SDS011;53413;49.878;8.142;2023-04-25T13:01:11;7.85;;;3.85;;
66559;SDS011;53413;49.878;8.142;2023-04-25T13:03:37;8.20;;;3.35;;
66559;SDS011;53413;49.878;8.142;2023-04-25T13:06:02;8.03;;;3.00;;
66559;SDS011;53413;49.878;8.142;2023-04-25T13:08:28;7.60;;;3.27;;
66559;SDS011;53413;49.878;8.142;2023-04-25T13:10:53;9.50;;;3.70;;
66559;SDS011;53413;49.878;8.142;2023-04-25T13:13:18;9.03;;;3.17;;
66559;SDS011;53413;49.878;8.142;2023-04-25T13:15:45;6.90;;;2.92;;
66559;SDS011;53413;49.878;8.142;2023-04-25T13:18:10;5.97;;;2.80;;
66559;SDS011;53413;49.878;8.142;2023-04-25T13:20:35;8.50;;;3.00;;
66559;SDS011;53413;49.878;8.142;2023-04-25T13:23:01;9.73;;;3.10;;
66559;SDS011;53413;49.878;8.142;2023-04-25T13:25:26;8.68;;;3.22;;
66559;SDS011;53413;49.878;8.142;2023-04-25T13:27:51;6.72;;;3.13;;
66559;SDS011;53413;49.878;8.142;2023-04-25T13:30:17;9.30;;;3.20;;
66559;SDS011;53413;49.878;8.142;2023-04-25T13:32:42;6.10;;;2.73;;
66559;SDS011;53413;49.878;8.142;2023-04-25T13:35:10;8.65;;;2.80;;
66559;SDS011;53413;49.878;8.142;2023-04-25T13:37:37;6.25;;;2.90;;
66559;SDS011;53413;49.878;8.142;2023-04-25T13:40:04;7.23;;;2.83;;
66559;SDS011;53413;49.878;8.142;2023-04-25T13:42:33;5.50;;;2.60;;
66559;SDS011;53413;49.878;8.142;2023-04-25T13:45:02;7.53;;;2.57;;
66559;SDS011;53413;49.878;8.142;2023-04-25T13:47:28;7.47;;;2.60;;
66559;SDS011;53413;49.878;8.142;2023-04-25T13:49:53;7.40;;;2.92;;
66559;SDS011;53413;49.878;8.142;2023-04-25T13:52:19;6.93;;;3.00;;
66559;SDS011;53413;49.878;8.142;2023-04-25T13:54:45;6.78;;;2.60;;
66559;SDS011;53413;49.878;8.142;2023-04-25T13:57:10;5.87;;;2.50;;
66559;SDS011;53413;49.878;8.142;2023-04-25T13:59:36;7.33;;;2.60;;
66559;SDS011;53413;49.878;8.142;2023-04-25T14:02:02;6.82;;;2.38;;
66559;SDS011;53413;49.878;8.142;2023-04-25T14:04:28;9.15;;;2.80;;
66559;SDS011;53413;49.878;8.142;2023-04-25T14:06:53;8.32;;;2.75;;
66559;SDS011;53413;49.878;8.142;2023-04-25T14:09:19;8.73;;;2.60;;
66559;SDS011;53413;49.878;8.142;2023-04-25T14:11:47;5.55;;;2.40;;
66559;SDS011;53413;49.878;8.142;2023-04-25T14:14:12;7.87;;;2.30;;
66559;SDS011;53413;49.878;8.142;2023-04-25T14:16:40;5.05;;;2.15;;
66559;SDS011;53413;49.878;8.142;2023-04-25T14:19:06;5.20;;;2.03;;
66559;SDS011;53413;49.878;8.142;2023-04-25T14:21:31;7.23;;;2.00;;
66559;SDS011;53413;49.878;8.142;2023-04-25T14:23:57;6.82;;;1.90;;
66559;SDS011;53413;49.878;8.142;2023-04-25T14:26:22;5.40;;;1.90;;
66559;SDS011;53413;49.878;8.142;2023-04-25T14:28:48;6.40;;;2.00;;
66559;SDS011;53413;49.878;8.142;2023-04-25T14:31:13;7.85;;;2.20;;
66559;SDS011;53413;49.878;8.142;2023-04-25T14:33:39;7.73;;;2.30;;
66559;SDS011;53413;49.878;8.142;2023-04-25T14:36:07;5.40;;;2.00;;
66559;SDS011;53413;49.878;8.142;2023-04-25T14:38:33;5.53;;;2.00;;
66559;SDS011;53413;49.878;8.142;2023-04-25T14:40:58;7.93;;;2.13;;
66559;SDS011;53413;49.878;8.142;2023-04-25T14:43:23;8.17;;;2.23;;